createdAt,value
2022-12-19T00:01:06.146Z,101256.8
2022-12-19T00:02:03.720Z,101257.45
2022-12-19T00:03:04.303Z,101257.35
2022-12-19T00:04:08.372Z,101258.64
2022-12-19T00:05:07.401Z,101250.18
2022-12-19T00:06:07.512Z,101252.46
2022-12-19T00:07:07.412Z,101249.25
2022-12-19T00:08:17.574Z,101257.12
2022-12-19T00:09:11.091Z,101260.55
2022-12-19T00:10:11.010Z,101263.77
2022-12-19T00:11:12.752Z,101262.18
2022-12-19T00:12:17.411Z,101251.41
2022-12-19T00:13:16.461Z,101256.67
2022-12-19T00:14:17.184Z,101254.88
2022-12-19T00:15:17.495Z,101247
2022-12-19T00:16:21.051Z,101249.08
2022-12-19T00:17:18.836Z,101244.88
2022-12-19T00:18:19.263Z,101244.55
2022-12-19T00:19:19.363Z,101239.66
2022-12-19T00:20:19.801Z,101243.42
2022-12-19T00:21:22.854Z,101247.28
2022-12-19T00:22:20.420Z,101253.54
2022-12-19T00:23:20.831Z,101252.52
2022-12-19T00:24:21.889Z,101249.09
2022-12-19T00:25:21.660Z,101250.92
2022-12-19T00:26:32.774Z,101245.33
2022-12-19T00:27:25.071Z,101252.6
2022-12-19T00:28:25.462Z,101247.09
2022-12-19T00:29:25.893Z,101250.14
2022-12-19T00:30:26.091Z,101245.41
2022-12-19T00:31:28.938Z,101244.45
2022-12-19T00:32:26.832Z,101244.75
2022-12-19T00:33:27.241Z,101255.98
2022-12-19T00:34:27.661Z,101257.08
2022-12-19T00:35:27.971Z,101248.75
2022-12-19T00:36:32.382Z,101252.02
2022-12-19T00:37:29.831Z,101251.75
2022-12-19T00:38:30.973Z,101255.67
2022-12-19T00:39:30.663Z,101251.39
2022-12-19T00:40:31.069Z,101249.83
2022-12-19T00:41:33.541Z,101257.12
2022-12-19T00:42:31.804Z,101248.09
2022-12-19T00:43:32.248Z,101254.19
2022-12-19T00:44:32.737Z,101258.55
2022-12-19T00:45:32.998Z,101266.69
2022-12-19T00:46:34.670Z,101264.77
2022-12-19T00:47:33.678Z,101262.44
2022-12-19T00:48:34.722Z,101265.7
2022-12-19T00:49:34.317Z,101270.61
2022-12-19T00:50:34.932Z,101267.46
2022-12-19T00:51:36.747Z,101264.66
2022-12-19T00:52:35.366Z,101281.35
2022-12-19T00:53:35.673Z,101270.7
2022-12-19T00:54:36.056Z,101272.05
2022-12-19T00:55:38.867Z,101265.23
2022-12-19T00:56:38.324Z,101262.58
2022-12-19T00:57:37.145Z,101263.44
2022-12-19T00:58:39.921Z,101255.82
2022-12-19T00:59:40.168Z,101256.23
2022-12-19T01:00:39.944Z,101249.66
2022-12-19T01:01:41.980Z,101261.3
2022-12-19T01:02:40.915Z,101260.12
2022-12-19T01:03:52.924Z,101261.36
2022-12-19T01:04:44.044Z,101264.79
2022-12-19T01:05:44.345Z,101267.85
2022-12-19T01:06:44.772Z,101266.44
2022-12-19T01:07:45.182Z,101267.5
2022-12-19T01:08:45.797Z,101266.28
2022-12-19T01:09:45.713Z,101260.03
2022-12-19T01:10:46.940Z,101254.84
2022-12-19T01:11:46.442Z,101254.27
2022-12-19T01:12:46.863Z,101259.88
2022-12-19T01:13:47.274Z,101260.32
2022-12-19T01:14:47.678Z,101260.16
2022-12-19T01:15:47.902Z,101262.33
2022-12-19T01:16:48.285Z,101263.34
2022-12-19T01:17:49.446Z,101263.16
2022-12-19T01:18:48.862Z,101254.16
2022-12-19T01:19:49.145Z,101258.4
2022-12-19T01:20:49.587Z,101257.75
2022-12-19T01:21:49.790Z,101251.79
2022-12-19T01:22:50.192Z,101258.57
2022-12-19T01:23:50.607Z,101267.2
2022-12-19T01:24:50.931Z,101266.05
2022-12-19T01:25:54.420Z,101262.54
2022-12-19T01:26:51.861Z,101260.18
2022-12-19T01:27:54.945Z,101254.12
2022-12-19T01:28:52.585Z,101251.67
2022-12-19T01:29:53.215Z,101251.07
2022-12-19T01:30:52.913Z,101249.52
2022-12-19T01:31:53.499Z,101251.72
2022-12-19T01:32:53.641Z,101252.98
2022-12-19T01:33:54.544Z,101254.91
2022-12-19T01:34:54.373Z,101252.59
2022-12-19T01:35:54.683Z,101248.09
2022-12-19T01:36:55.092Z,101255.48
2022-12-19T01:37:58.065Z,101250.91
2022-12-19T01:38:57.360Z,101252.91
2022-12-19T01:39:56.043Z,101257.2
2022-12-19T01:40:57.680Z,101254.38
2022-12-19T01:41:58.098Z,101251.8
2022-12-19T01:42:57.171Z,101254.79
2022-12-19T01:44:05.766Z,101253.81
2022-12-19T01:46:02.715Z,101253.94
2022-12-19T01:47:01.264Z,101257.38
2022-12-19T01:52:19.500Z,101261.38
2022-12-19T01:53:16.914Z,101262.97
2022-12-19T01:54:25.525Z,101265.43
2022-12-19T01:55:18.871Z,101258.44
2022-12-19T01:56:22.848Z,101261.14
2022-12-19T01:57:20.503Z,101259.47
2022-12-19T01:58:20.710Z,101257.87
2022-12-19T01:59:27.777Z,101257.67
2022-12-19T02:00:25.094Z,101263.47
2022-12-19T02:01:25.827Z,101262.86
2022-12-19T02:02:31.624Z,101258.94
2022-12-19T02:03:32.311Z,101254.64
2022-12-19T02:04:32.377Z,101264.91
2022-12-19T02:05:31.596Z,101264.86
2022-12-19T02:06:32.852Z,101268.55
2022-12-19T02:07:32.953Z,101273.45
2022-12-19T02:08:31.844Z,101269.2
2022-12-19T02:09:32.049Z,101264.57
2022-12-19T02:10:31.756Z,101267.36
2022-12-19T02:11:32.056Z,101278.76
2022-12-19T02:12:36.771Z,101270.83
2022-12-19T02:13:34.731Z,101271.33
2022-12-19T02:14:35.552Z,101270.5
2022-12-19T02:30:14.286Z,101273.03
2022-12-19T02:43:45.077Z,101274.7
2022-12-19T02:45:49.573Z,101282.58
2022-12-19T02:46:49.407Z,101283.8
2022-12-19T02:47:48.891Z,101283.92
2022-12-19T02:48:49.524Z,101284.12
2022-12-19T02:49:49.428Z,101291.78
2022-12-19T02:50:50.185Z,101289.16
2022-12-19T02:51:50.070Z,101282.03
2022-12-19T02:52:50.047Z,101282.3
2022-12-19T02:53:50.889Z,101284.64
2022-12-19T02:54:53.413Z,101292.05
2022-12-19T03:11:35.997Z,101277.7
2022-12-19T03:12:40.676Z,101286.66
2022-12-19T03:13:42.733Z,101282.84
2022-12-19T03:14:41.313Z,101286.75
2022-12-19T03:15:41.718Z,101286.91
2022-12-19T03:16:41.975Z,101287.07
2022-12-19T03:17:41.831Z,101291.98
2022-12-19T03:18:42.866Z,101296.98
2022-12-19T03:19:42.286Z,101292.06
2022-12-19T03:21:49.956Z,101279.05
2022-12-19T03:22:48.128Z,101280.61
2022-12-19T03:23:50.524Z,101283.48
2022-12-19T03:24:48.546Z,101289.46
2022-12-19T03:25:56.198Z,101289.09
2022-12-19T03:31:05.160Z,101301.92
2022-12-19T03:32:05.589Z,101301.14
2022-12-19T03:33:03.855Z,101299.88
2022-12-19T03:36:14.010Z,101306.92
2022-12-19T03:37:17.020Z,101304.33
2022-12-19T03:38:18.319Z,101300.36
2022-12-19T03:39:17.716Z,101302.47
2022-12-19T03:40:20.084Z,101304.1
2022-12-19T03:41:21.474Z,101303.48
2022-12-19T03:42:20.668Z,101305.72
2022-12-19T03:43:23.186Z,101300.16
2022-12-19T03:44:22.764Z,101306.17
2022-12-19T03:46:27.826Z,101311.62
2022-12-19T03:47:31.565Z,101307.7
2022-12-19T03:49:32.834Z,101312.06
2022-12-19T03:58:56.663Z,101315.91
2022-12-19T03:59:55.106Z,101314.7
2022-12-19T04:00:54.316Z,101308.76
2022-12-19T04:01:54.499Z,101311.18
2022-12-19T04:02:56.302Z,101305.73
2022-12-19T04:03:55.593Z,101309.08
2022-12-19T04:04:59.369Z,101303.55
2022-12-19T04:05:59.465Z,101308.47
2022-12-19T04:06:58.831Z,101300.44
2022-12-19T04:08:02.864Z,101298.28
2022-12-19T04:09:01.331Z,101308.47
2022-12-19T04:10:05.637Z,101308.55
2022-12-19T04:11:09.816Z,101309.98
2022-12-19T04:12:13.756Z,101315.88
2022-12-19T04:13:17.127Z,101314.33
2022-12-19T04:15:20.328Z,101307.41
2022-12-19T04:18:22.664Z,101314.08
2022-12-19T04:20:26.290Z,101320.62
2022-12-19T04:21:32.964Z,101308.11
2022-12-19T04:23:36.348Z,101322.05
2022-12-19T04:24:36.366Z,101325.69
2022-12-19T04:26:39.246Z,101320.45
2022-12-19T04:27:41.699Z,101324.75
2022-12-19T04:28:43.920Z,101323.34
2022-12-19T04:29:42.427Z,101329.28
2022-12-19T04:30:43.089Z,101326.17
2022-12-19T04:31:42.905Z,101328.67
2022-12-19T04:32:46.025Z,101333.87
2022-12-19T04:33:43.593Z,101332.23
2022-12-19T04:34:43.603Z,101332.33
2022-12-19T04:35:44.216Z,101328.02
2022-12-19T04:36:44.417Z,101327.56
2022-12-19T04:37:44.742Z,101333.22
2022-12-19T04:38:45.053Z,101333.22
2022-12-19T04:39:45.355Z,101331.62
2022-12-19T04:40:45.538Z,101335.38
2022-12-19T04:41:45.980Z,101324.66
2022-12-19T04:42:46.293Z,101329.57
2022-12-19T04:43:46.715Z,101331.02
2022-12-19T04:44:46.921Z,101333.59
2022-12-19T04:45:47.373Z,101332.56
2022-12-19T04:46:47.780Z,101335.02
2022-12-19T04:47:47.880Z,101336.97
2022-12-19T04:48:48.195Z,101341.98
2022-12-19T04:49:48.496Z,101342.18
2022-12-19T04:50:48.925Z,101344.06
2022-12-19T04:51:49.337Z,101341.11
2022-12-19T04:52:53.235Z,101345.04
2022-12-19T04:53:53.027Z,101344.2
2022-12-19T04:54:53.456Z,101341.2
2022-12-19T04:56:54.696Z,101345.99
2022-12-19T04:57:54.999Z,101346.68
2022-12-19T04:58:58.803Z,101348.23
2022-12-19T04:59:56.147Z,101343.95
2022-12-19T05:01:01.465Z,101345.52
2022-12-19T05:01:58.906Z,101351.07
2022-12-19T05:02:59.795Z,101352.17
2022-12-19T05:04:04.220Z,101353.12
2022-12-19T05:05:02.126Z,101347.88
2022-12-19T05:06:13.797Z,101351.96
2022-12-19T05:07:06.436Z,101352.45
2022-12-19T05:08:06.548Z,101349.83
2022-12-19T05:09:06.841Z,101351.27
2022-12-19T05:10:08.296Z,101351.59
2022-12-19T05:11:13.386Z,101352.12
2022-12-19T05:12:09.932Z,101352.41
2022-12-19T05:13:10.255Z,101353.88
2022-12-19T05:14:10.579Z,101353.69
2022-12-19T05:15:11.285Z,101343.86
2022-12-19T05:16:12.565Z,101343.28
2022-12-19T05:17:11.716Z,101342.22
2022-12-19T05:18:11.836Z,101347.02
2022-12-19T05:19:12.263Z,101341.03
2022-12-19T05:20:12.556Z,101349.02
2022-12-19T05:21:13.095Z,101340.75
2022-12-19T05:22:13.180Z,101344.23
2022-12-19T05:23:17.411Z,101343.25
2022-12-19T05:24:15.638Z,101341.86
2022-12-19T05:25:15.979Z,101346.5
2022-12-19T05:26:16.173Z,101351.73
2022-12-19T05:27:16.349Z,101354.92
2022-12-19T05:28:18.331Z,101348
2022-12-19T05:29:17.632Z,101344.86
2022-12-19T05:30:17.386Z,101350.05
2022-12-19T05:31:20.453Z,101347.27
2022-12-19T05:32:17.988Z,101351.08
2022-12-19T05:33:18.280Z,101348.3
2022-12-19T05:34:18.780Z,101352.75
2022-12-19T05:35:19.094Z,101358.81
2022-12-19T05:36:19.613Z,101357.55
2022-12-19T05:37:19.724Z,101356.89
2022-12-19T05:38:19.938Z,101359.06
2022-12-19T05:39:20.304Z,101361.92
2022-12-19T05:40:20.679Z,101367.62
2022-12-19T05:41:21.697Z,101367.04
2022-12-19T05:42:21.290Z,101365.53
2022-12-19T05:43:22.138Z,101370.93
2022-12-19T05:44:22.124Z,101370.31
2022-12-19T05:45:22.744Z,101378.09
2022-12-19T05:46:24.772Z,101377.89
2022-12-19T05:47:22.964Z,101372.73
2022-12-19T05:48:23.396Z,101378.12
2022-12-19T05:49:23.694Z,101377.31
2022-12-19T05:50:24.011Z,101379.08
2022-12-19T05:51:24.176Z,101377.77
2022-12-19T05:52:24.643Z,101373.51
2022-12-19T05:53:26.173Z,101376.82
2022-12-19T05:54:25.264Z,101380.02
2022-12-19T05:55:25.699Z,101379.44
2022-12-19T05:56:25.800Z,101381.7
2022-12-19T05:57:26.201Z,101377.2
2022-12-19T05:58:26.523Z,101378.7
2022-12-19T05:59:27.032Z,101372.69
2022-12-19T06:00:27.454Z,101380.91
2022-12-19T06:01:28.209Z,101375.02
2022-12-19T06:02:32.316Z,101382.18
2022-12-19T06:03:29.900Z,101382.44
2022-12-19T06:04:30.547Z,101389.59
2022-12-19T06:05:31.072Z,101388.58
2022-12-19T06:06:30.875Z,101392.01
2022-12-19T06:07:31.194Z,101398.59
2022-12-19T06:08:32.110Z,101385.42
2022-12-19T06:09:31.715Z,101393.69
2022-12-19T06:10:32.333Z,101393.89
2022-12-19T06:11:32.444Z,101390.05
2022-12-19T06:12:32.862Z,101393.52
2022-12-19T06:13:34.195Z,101392.17
2022-12-19T06:14:33.586Z,101397.04
2022-12-19T06:15:33.886Z,101398.39
2022-12-19T06:16:34.162Z,101398.31
2022-12-19T06:17:34.625Z,101396.75
2022-12-19T06:18:35.045Z,101403.72
2022-12-19T06:19:35.258Z,101393.89
2022-12-19T06:20:35.474Z,101395.23
2022-12-19T06:21:39.723Z,101395.69
2022-12-19T06:22:38.245Z,101393.11
2022-12-19T06:23:39.060Z,101393.77
2022-12-19T06:24:38.560Z,101395.69
2022-12-19T06:25:39.093Z,101398.02
2022-12-19T06:26:39.396Z,101404.2
2022-12-19T06:27:39.834Z,101392.5
2022-12-19T06:28:40.035Z,101396.39
2022-12-19T06:29:40.245Z,101397.05
2022-12-19T06:30:40.767Z,101401.62
2022-12-19T06:31:41.101Z,101401.62
2022-12-19T06:32:41.276Z,101404.12
2022-12-19T06:33:41.682Z,101409.23
2022-12-19T06:35:44.691Z,101411.16
2022-12-19T06:36:44.906Z,101412.06
2022-12-19T06:37:45.213Z,101409.48
2022-12-19T06:38:45.530Z,101417
2022-12-19T06:39:45.930Z,101413.48
2022-12-19T06:40:46.152Z,101416.92
2022-12-19T06:41:46.575Z,101415.9
2022-12-19T06:42:47.912Z,101417.33
2022-12-19T06:43:51.872Z,101417.98
2022-12-19T06:44:52.639Z,101417.36
2022-12-19T06:45:51.127Z,101419.48
2022-12-19T06:46:52.889Z,101421.98
2022-12-19T06:47:51.830Z,101429.26
2022-12-19T06:48:52.436Z,101424.72
2022-12-19T06:49:52.616Z,101427.78
2022-12-19T06:50:52.757Z,101425.7
2022-12-19T06:51:53.276Z,101417.77
2022-12-19T06:52:54.393Z,101421.32
2022-12-19T06:53:53.799Z,101422.98
2022-12-19T06:54:54.227Z,101428.61
2022-12-19T06:55:58.427Z,101426.64
2022-12-19T06:56:55.771Z,101428.55
2022-12-19T06:57:55.988Z,101430.39
2022-12-19T06:58:56.399Z,101433.7
2022-12-19T06:59:57.949Z,101431.3
2022-12-19T07:00:57.136Z,101438.77
2022-12-19T07:02:59.566Z,101435.54
2022-12-19T07:03:58.885Z,101440.16
2022-12-19T07:06:00.275Z,101436.93
2022-12-19T07:07:00.955Z,101434.8
2022-12-19T07:08:01.163Z,101438.73
2022-12-19T07:09:01.261Z,101441.47
2022-12-19T07:10:01.601Z,101438.78
2022-12-19T07:11:02.122Z,101437.39
2022-12-19T07:12:02.648Z,101442.29
2022-12-19T07:13:03.158Z,101442.58
2022-12-19T07:14:02.828Z,101443.97
2022-12-19T07:15:03.675Z,101441.15
2022-12-19T07:16:05.377Z,101445.61
2022-12-19T07:17:04.627Z,101443.88
2022-12-19T07:18:07.296Z,101445.88
2022-12-19T07:19:05.439Z,101448.5
2022-12-19T07:20:05.854Z,101450.38
2022-12-19T07:21:06.786Z,101456.8
2022-12-19T07:22:06.707Z,101455.2
2022-12-19T07:23:07.717Z,101455.03
2022-12-19T07:24:07.728Z,101451.28
2022-12-19T07:25:07.694Z,101452.09
2022-12-19T07:26:07.328Z,101451.92
2022-12-19T07:27:07.555Z,101456.3
2022-12-19T07:28:08.871Z,101456.46
2022-12-19T07:29:09.093Z,101452.52
2022-12-19T07:30:09.513Z,101456.08
2022-12-19T07:31:08.549Z,101454.64
2022-12-19T07:32:09.005Z,101451.5
2022-12-19T07:33:11.238Z,101450.3
2022-12-19T07:34:09.624Z,101450.78
2022-12-19T07:35:10.267Z,101447.92
2022-12-19T07:36:10.256Z,101454.84
2022-12-19T07:37:10.995Z,101457.18
2022-12-19T07:38:11.022Z,101457.33
2022-12-19T07:39:11.713Z,101449.31
2022-12-19T07:40:12.455Z,101452.66
2022-12-19T07:41:12.047Z,101462.37
2022-12-19T07:42:12.247Z,101460.35
2022-12-19T07:43:12.660Z,101463.95
2022-12-19T07:44:12.979Z,101469.15
2022-12-19T07:45:13.388Z,101461.09
2022-12-19T07:46:13.801Z,101468.86
2022-12-19T07:47:13.827Z,101464.69
2022-12-19T07:48:14.226Z,101465.36
2022-12-19T07:49:19.576Z,101469.2
2022-12-19T07:50:19.736Z,101466.12
2022-12-19T07:51:20.081Z,101475.29
2022-12-19T07:52:20.290Z,101473
2022-12-19T07:53:20.615Z,101477.14
2022-12-19T07:54:21.124Z,101474.03
2022-12-19T07:55:21.392Z,101475.58
2022-12-19T07:56:21.960Z,101474.09
2022-12-19T07:57:22.175Z,101471.64
2022-12-19T07:58:22.604Z,101482.88
2022-12-19T07:59:28.904Z,101482.52
2022-12-19T08:00:23.260Z,101482.98
2022-12-19T08:01:23.314Z,101486.81
2022-12-19T08:02:26.266Z,101487.12
2022-12-19T08:03:25.117Z,101487.69
2022-12-19T08:04:24.465Z,101491.69
2022-12-19T08:05:24.665Z,101490
2022-12-19T08:06:25.097Z,101498.22
2022-12-19T08:07:25.184Z,101495.92
2022-12-19T08:08:25.727Z,101500.41
2022-12-19T08:09:26.037Z,101495.96
2022-12-19T08:10:26.555Z,101494.16
2022-12-19T08:11:26.872Z,101498
2022-12-19T08:12:27.307Z,101498.4
2022-12-19T08:13:29.068Z,101504.47
2022-12-19T08:14:29.651Z,101503.16
2022-12-19T08:15:29.967Z,101503.16
2022-12-19T08:16:31.304Z,101508.19
2022-12-19T08:17:30.623Z,101501.72
2022-12-19T08:18:31.011Z,101508.02
2022-12-19T08:19:31.227Z,101511.48
2022-12-19T08:20:31.536Z,101512.41
2022-12-19T08:21:32.154Z,101509.22
2022-12-19T08:22:32.587Z,101513.86
2022-12-19T08:23:33.193Z,101508.94
2022-12-19T08:24:33.006Z,101515.1
2022-12-19T08:25:33.224Z,101526.39
2022-12-19T08:26:39.462Z,101519
2022-12-19T08:27:34.266Z,101524.39
2022-12-19T08:28:35.491Z,101521.2
2022-12-19T08:29:34.975Z,101527.21
2022-12-19T08:30:35.265Z,101519.09
2022-12-19T08:31:35.630Z,101527.25
2022-12-19T08:32:35.827Z,101525.36
2022-12-19T08:33:37.051Z,101526.33
2022-12-19T08:34:36.523Z,101527.91
2022-12-19T08:35:36.969Z,101528.31
2022-12-19T08:36:37.197Z,101534.92
2022-12-19T08:37:37.687Z,101535.75
2022-12-19T08:38:38.729Z,101531.59
2022-12-19T08:39:39.547Z,101528.48
2022-12-19T08:40:42.843Z,101537
2022-12-19T08:41:43.248Z,101535.86
2022-12-19T08:42:43.564Z,101537.17
2022-12-19T08:43:49.301Z,101540.14
2022-12-19T08:44:46.443Z,101535.25
2022-12-19T08:45:49.816Z,101540.02
2022-12-19T08:46:50.301Z,101538.3
2022-12-19T08:47:48.112Z,101533.3
2022-12-19T08:48:48.332Z,101539.97
2022-12-19T08:49:48.945Z,101530.99
2022-12-19T08:50:53.666Z,101538.1
2022-12-19T08:51:51.114Z,101531.39
2022-12-19T08:52:51.301Z,101537.25
2022-12-19T08:53:51.625Z,101536.14
2022-12-19T08:54:52.012Z,101541.16
2022-12-19T08:56:00.118Z,101547.09
2022-12-19T08:56:57.779Z,101546.55
2022-12-19T08:57:57.789Z,101537.69
2022-12-19T08:58:57.957Z,101538.97
2022-12-19T08:59:58.525Z,101534.62
2022-12-19T09:01:05.837Z,101538.52
2022-12-19T09:02:03.501Z,101532.25
2022-12-19T09:03:04.346Z,101535.19
2022-12-19T09:05:36.897Z,101543.84
2022-12-19T09:05:58.069Z,101537.83
2022-12-19T09:06:18.669Z,101541.3
2022-12-19T09:07:11.773Z,101543.27
2022-12-19T09:08:13.137Z,101537.25
2022-12-19T09:09:13.431Z,101540
2022-12-19T09:10:14.301Z,101533
2022-12-19T09:11:16.839Z,101534.47
2022-12-19T09:12:15.808Z,101540.86
2022-12-19T09:13:14.665Z,101542.56
2022-12-19T09:14:16.369Z,101533.37
2022-12-19T09:15:18.432Z,101542.05
2022-12-19T09:16:23.605Z,101547.59
2022-12-19T09:17:21.107Z,101542.27
2022-12-19T09:18:21.379Z,101543.84
2022-12-19T09:19:21.687Z,101547.3
2022-12-19T09:20:23.667Z,101548.05
2022-12-19T09:21:24.169Z,101549.16
2022-12-19T09:22:27.669Z,101543.89
2022-12-19T09:23:28.391Z,101541.95
2022-12-19T09:24:27.487Z,101540.32
2022-12-19T09:25:27.556Z,101540.27
2022-12-19T09:26:27.979Z,101532.12
2022-12-19T09:27:30.449Z,101535.34
2022-12-19T09:28:30.663Z,101535.61
2022-12-19T09:29:35.323Z,101542.25
2022-12-19T09:30:33.169Z,101540.91
2022-12-19T09:31:33.767Z,101539.72
2022-12-19T09:32:34.068Z,101537.42
2022-12-19T09:33:42.948Z,101544.66
2022-12-19T09:34:37.547Z,101533.91
2022-12-19T09:35:36.246Z,101540.75
2022-12-19T09:36:36.439Z,101539.19
2022-12-19T09:37:36.828Z,101536.47
2022-12-19T09:38:37.967Z,101533.5
2022-12-19T09:39:37.609Z,101534.37
2022-12-19T09:47:03.349Z,101538.55
2022-12-19T09:48:02.603Z,101538.84
2022-12-19T09:49:02.546Z,101541.23
2022-12-19T09:50:02.601Z,101541.48
2022-12-19T09:51:12.405Z,101536.38
2022-12-19T09:56:21.634Z,101535.84
2022-12-19T10:00:41.911Z,101536.91
2022-12-19T10:01:43.474Z,101541.13
2022-12-19T10:07:13.959Z,101534.85
2022-12-19T10:08:07.820Z,101538.5
2022-12-19T10:09:49.016Z,101532.85
2022-12-19T10:12:31.479Z,101533.92
2022-12-19T10:19:20.648Z,101541.94
2022-12-19T10:34:53.855Z,101540.68
2022-12-19T10:44:14.312Z,101534.44
2022-12-19T10:47:21.048Z,101532.28
2022-12-19T10:48:30.783Z,101532.61
2022-12-19T10:49:26.639Z,101529.33
2022-12-19T10:50:27.939Z,101535.69
2022-12-19T10:51:29.786Z,101538.41
2022-12-19T10:53:32.039Z,101540.01
2022-12-19T10:56:38.267Z,101539.8
2022-12-19T10:57:38.268Z,101536.41
2022-12-19T11:01:43.462Z,101540.77
2022-12-19T11:02:50.922Z,101538.75
2022-12-19T11:04:48.051Z,101540
2022-12-19T11:10:38.175Z,101535.58
2022-12-19T11:15:53.901Z,101542.69
2022-12-19T11:19:28.614Z,101534.6
2022-12-19T11:23:00.680Z,101533.78
2022-12-19T11:24:16.294Z,101537.23
2022-12-19T11:26:20.782Z,101539.46
2022-12-19T11:29:40.717Z,101532.69
2022-12-19T11:29:41.965Z,101537.35
2022-12-19T11:29:42.411Z,101533.08
2022-12-19T11:30:36.288Z,101529.56
2022-12-19T11:30:36.953Z,101534.7
2022-12-19T11:30:43.368Z,101528.22
2022-12-19T11:30:43.936Z,101530.75
2022-12-19T11:30:46.253Z,101529.78
2022-12-19T11:32:39.026Z,101531.78
2022-12-19T11:40:46.585Z,101531.42
2022-12-19T11:50:02.923Z,101526.66
2022-12-19T11:51:08.552Z,101530.16
2022-12-19T11:56:17.053Z,101527.67
2022-12-19T11:57:14.437Z,101527.55
2022-12-19T11:58:15.090Z,101525.42
2022-12-19T12:00:22.354Z,101521.3
2022-12-19T12:06:47.701Z,101521.34
2022-12-19T12:08:55.228Z,101518.74
2022-12-19T12:44:08.594Z,101532.54
2022-12-19T12:46:09.646Z,101544.41
2022-12-19T12:50:20.420Z,101546.48
2022-12-19T12:51:18.491Z,101547.13
2022-12-19T12:52:29.846Z,101542.49
2022-12-19T12:53:26.591Z,101540.68
2022-12-19T12:54:31.000Z,101537.18
2022-12-19T12:55:37.479Z,101537.45
2022-12-19T12:56:31.310Z,101539.86
2022-12-19T12:57:36.839Z,101535.25
2022-12-19T12:59:35.924Z,101536.47
2022-12-19T13:00:37.271Z,101536.72
2022-12-19T13:01:39.563Z,101534.11
2022-12-19T13:02:37.522Z,101532.59
2022-12-19T13:03:40.460Z,101527.75
2022-12-19T13:08:48.389Z,101527.91
2022-12-19T13:09:52.902Z,101527.08
2022-12-19T13:12:01.727Z,101527.7
2022-12-19T13:13:56.829Z,101526.7
2022-12-19T13:15:58.071Z,101528.32
2022-12-19T13:16:58.430Z,101523.3
2022-12-19T13:21:09.573Z,101524.93
2022-12-19T13:24:16.232Z,101531.98
2022-12-19T13:31:19.831Z,101533.5
2022-12-19T13:31:35.979Z,101532.36
2022-12-19T13:34:43.544Z,101524.34
2022-12-19T13:39:46.990Z,101526.11
2022-12-19T13:39:57.246Z,101517.17
2022-12-19T13:41:03.052Z,101521.6
2022-12-19T13:44:06.337Z,101520.8
2022-12-19T13:47:21.967Z,101515.05
2022-12-19T13:48:23.871Z,101512.25
2022-12-19T13:50:34.529Z,101516.72
2022-12-19T13:51:26.959Z,101520.39
2022-12-19T13:52:27.173Z,101523.69
2022-12-19T13:53:29.648Z,101527.72
2022-12-19T13:54:37.622Z,101529.84
2022-12-19T13:55:30.777Z,101534.42
2022-12-19T13:56:31.088Z,101528.88
2022-12-19T13:57:32.178Z,101528.08
2022-12-19T13:58:37.047Z,101523.89
2022-12-19T13:59:40.055Z,101525.15
2022-12-19T14:00:42.681Z,101526.42
2022-12-19T14:01:41.707Z,101524.05
2022-12-19T14:02:51.484Z,101519.03
2022-12-19T14:03:45.558Z,101515.76
2022-12-19T14:04:45.690Z,101512.94
2022-12-19T14:06:16.140Z,101511.15
2022-12-19T14:06:47.867Z,101506.67
2022-12-19T14:07:49.399Z,101505.39
2022-12-19T14:09:58.588Z,101496.86
2022-12-19T14:11:31.692Z,101500.62
2022-12-19T14:11:40.202Z,101503.22
2022-12-19T14:13:39.442Z,101499.64
2022-12-19T14:13:59.285Z,101500.07
2022-12-19T14:14:10.266Z,101505.98
2022-12-19T14:16:15.418Z,101501.42
2022-12-19T14:17:17.416Z,101506.06
2022-12-19T14:18:43.249Z,101508.97
2022-12-19T14:22:10.194Z,101509.14
2022-12-19T14:22:26.360Z,101509.77
2022-12-19T14:23:42.747Z,101507.43
2022-12-19T14:24:26.363Z,101510.08
2022-12-19T14:28:19.732Z,101513.38
2022-12-19T14:30:38.646Z,101506.62
2022-12-19T14:32:58.028Z,101500.58
2022-12-19T14:33:44.123Z,101496.33
2022-12-19T14:36:05.107Z,101487.56
2022-12-19T14:36:08.841Z,101483.48
2022-12-19T14:36:54.188Z,101479.27
2022-12-19T14:39:25.721Z,101472.84
2022-12-19T14:41:08.513Z,101471.08
2022-12-19T14:52:11.487Z,101489.23
2022-12-19T14:54:03.003Z,101498.39
2022-12-19T14:54:29.541Z,101501.47
2022-12-19T14:58:53.528Z,101490.96
2022-12-19T14:58:55.187Z,101482.27
2022-12-19T15:01:43.010Z,101481.02
2022-12-19T15:02:43.318Z,101473.92
2022-12-19T15:04:47.232Z,101471.08
2022-12-19T15:07:10.391Z,101467.88
2022-12-19T15:08:00.223Z,101466.98
2022-12-19T15:10:57.592Z,101463.28
2022-12-19T15:11:06.608Z,101467.41
2022-12-19T15:11:16.986Z,101463.47
2022-12-19T15:14:54.588Z,101465.25
2022-12-19T15:17:25.480Z,101461.2
2022-12-19T15:19:27.841Z,101458.52
2022-12-19T15:20:28.253Z,101456.69
2022-12-19T15:21:30.434Z,101454.96
2022-12-19T15:22:28.986Z,101453.64
2022-12-19T15:23:29.752Z,101450.28
2022-12-19T15:24:29.932Z,101448.27
2022-12-19T15:26:02.323Z,101443.31
2022-12-19T15:27:33.633Z,101439.42
2022-12-19T15:28:42.201Z,101447.4
2022-12-19T15:29:34.875Z,101441.89
2022-12-19T15:30:37.129Z,101442.12
2022-12-19T15:31:43.494Z,101444.69
2022-12-19T15:32:36.098Z,101437.27
2022-12-19T15:33:38.443Z,101438.88
2022-12-19T15:34:50.205Z,101439.44
2022-12-19T15:35:43.202Z,101436.19
2022-12-19T15:36:43.250Z,101436.95
2022-12-19T15:37:44.880Z,101434.66
2022-12-19T15:38:44.056Z,101435.97
2022-12-19T15:39:45.514Z,101436.44
2022-12-19T15:40:44.992Z,101439.48
2022-12-19T15:41:48.979Z,101433.62
2022-12-19T15:42:53.296Z,101439.07
2022-12-19T15:44:03.706Z,101435.83
2022-12-19T15:44:54.221Z,101438.63
2022-12-19T15:45:58.783Z,101430.42
2022-12-19T15:46:56.413Z,101435.44
2022-12-19T15:47:56.804Z,101433.61
2022-12-19T15:48:57.227Z,101431.05
2022-12-19T15:49:57.522Z,101430.46
2022-12-19T15:50:57.946Z,101430.95
2022-12-19T15:51:58.122Z,101426.12
2022-12-19T15:53:00.330Z,101426.12
2022-12-19T15:54:15.649Z,101426.54
2022-12-19T15:55:01.656Z,101428.43
2022-12-19T15:56:02.595Z,101424.92
2022-12-19T15:57:02.006Z,101428.12
2022-12-19T15:58:06.280Z,101427.42
2022-12-19T15:59:05.291Z,101424.41
2022-12-19T16:00:07.971Z,101423.78
2022-12-19T16:01:06.405Z,101421.23
2022-12-19T16:03:27.724Z,101409.52
2022-12-19T16:04:12.976Z,101411.27
2022-12-19T16:05:11.614Z,101413.19
2022-12-19T16:06:13.511Z,101412.19
2022-12-19T16:08:19.135Z,101405.55
2022-12-19T16:10:19.268Z,101399.27
2022-12-19T16:11:22.864Z,101403.18
2022-12-19T16:12:24.305Z,101400.67
2022-12-19T16:13:25.343Z,101399.84
2022-12-19T16:14:24.626Z,101397.7
2022-12-19T16:16:29.078Z,101396.4
2022-12-19T16:17:32.223Z,101396.69
2022-12-19T16:18:29.559Z,101390.28